Time;durP1;ratioP1;P1;durP2;ratioP2;P2;SDS_P1;SDS_P2;PMS_P1;PMS_P2;Temp;Humidity;BMP_temperature;BMP_pressure;BME280_temperature;BME280_humidity;BME280_pressure;Samples;Min_cycle;Max_cycle;Signal;HPM_P1;HPM_P2
2022/11/13 00:00:10;;;;;;;5.73;3.17;;;4.60;98.00;;;;;;5054345;28;20481;-67
2022/11/13 00:02:37;;;;;;;4.30;2.40;;;4.60;98.00;;;;;;5055233;28;20511;-66
2022/11/13 00:05:04;;;;;;;6.97;3.27;;;4.70;98.00;;;;;;5036203;28;20463;-66
2022/11/13 00:07:31;;;;;;;4.80;3.60;;;4.80;98.00;;;;;;5053880;28;20992;-66
2022/11/13 00:09:58;;;;;;;11.33;4.00;;;4.90;98.00;;;;;;5053903;28;20470;-67
2022/11/13 00:12:29;;;;;;;6.30;3.73;;;4.90;98.00;;;;;;5053649;28;20468;-66
2022/11/13 00:14:56;;;;;;;4.20;3.30;;;5.00;98.00;;;;;;5053439;28;20490;-66
2022/11/13 00:17:24;;;;;;;6.03;2.97;;;4.90;98.00;;;;;;5053245;28;20457;-66
2022/11/13 00:19:51;;;;;;;10.53;3.67;;;4.80;98.00;;;;;;5053384;28;20454;-67
2022/11/13 00:22:18;;;;;;;6.47;2.83;;;4.70;98.00;;;;;;5053393;28;20493;-66
2022/11/13 00:24:46;;;;;;;4.53;3.27;;;4.60;98.00;;;;;;5035876;28;20863;-67
2022/11/13 00:27:13;;;;;;;10.90;3.70;;;4.70;98.00;;;;;;5053229;28;20949;-67
2022/11/13 00:29:42;;;;;;;3.80;2.60;;;4.90;98.00;;;;;;5053090;28;20476;-67
2022/11/13 00:32:10;;;;;;;2.93;2.70;;;4.70;98.00;;;;;;5053302;28;20465;-66
2022/11/13 00:34:37;;;;;;;4.07;3.10;;;4.70;98.00;;;;;;5053079;28;20468;-67
2022/11/13 00:37:04;;;;;;;4.60;2.83;;;4.70;98.00;;;;;;5053240;28;20459;-67
2022/11/13 00:39:32;;;;;;;5.90;3.13;;;5.00;98.00;;;;;;5053027;28;20465;-66
2022/11/13 00:41:59;;;;;;;8.03;2.77;;;4.90;98.00;;;;;;5051727;28;20495;-66
2022/11/13 00:44:26;;;;;;;10.60;3.70;;;5.00;98.00;;;;;;5052949;28;20463;-67
2022/11/13 00:46:55;;;;;;;4.80;2.50;;;4.90;98.00;;;;;;5052914;28;20975;-66
2022/11/13 00:49:22;;;;;;;7.83;3.70;;;4.90;98.00;;;;;;5052971;28;20846;-67
2022/11/13 00:51:49;;;;;;;4.13;3.10;;;4.70;98.00;;;;;;5052879;28;20464;-66
2022/11/13 00:54:16;;;;;;;4.67;2.50;;;4.60;98.00;;;;;;5052632;28;20954;-66
2022/11/13 00:56:44;;;;;;;5.03;3.20;;;4.60;98.00;;;;;;5052865;28;20466;-67
2022/11/13 00:59:11;;;;;;;4.87;3.00;;;4.50;98.00;;;;;;5035477;28;20460;-67
2022/11/13 01:01:38;;;;;;;4.37;2.97;;;4.50;98.00;;;;;;5053034;28;20899;-67
2022/11/13 01:04:07;;;;;;;3.20;2.37;;;4.60;98.00;;;;;;5052347;28;20977;-67
2022/11/13 01:06:34;;;;;;;3.40;2.60;;;4.70;98.00;;;;;;5018742;28;20461;-67
2022/11/13 01:09:01;;;;;;;3.13;2.47;;;4.40;98.00;;;;;;5052503;28;20455;-66
2022/11/13 01:11:30;;;;;;;5.77;2.80;;;4.30;98.00;;;;;;5053296;28;20451;-67
2022/11/13 01:13:59;;;;;;;2.50;1.90;;;4.10;98.00;;;;;;5053055;28;20455;-67
2022/11/13 01:16:28;;;;;;;4.47;2.23;;;4.00;98.00;;;;;;5053252;28;20502;-67
2022/11/13 01:18:56;;;;;;;11.43;4.17;;;3.80;98.00;;;;;;5052912;28;20568;-67
2022/11/13 01:21:26;;;;;;;8.10;3.80;;;3.80;98.00;;;;;;5052030;28;20485;-67
2022/11/13 01:23:55;;;;;;;6.03;4.00;;;3.70;98.00;;;;;;5052047;28;20461;-66
2022/11/13 01:26:25;;;;;;;6.17;3.80;;;3.70;98.00;;;;;;5052130;28;20482;-66
2022/11/13 01:28:52;;;;;;;4.17;2.90;;;3.70;98.00;;;;;;5052046;28;20863;-66
2022/11/13 01:31:22;;;;;;;6.40;3.07;;;3.70;98.00;;;;;;5052283;28;20454;-66
2022/11/13 01:33:49;;;;;;;6.07;3.00;;;3.80;98.00;;;;;;5052016;28;20449;-66
2022/11/13 01:36:19;;;;;;;7.93;3.17;;;3.90;98.00;;;;;;5052156;28;20467;-67
2022/11/13 01:38:48;;;;;;;4.20;2.90;;;3.90;98.00;;;;;;5051775;28;20478;-66
2022/11/13 01:41:19;;;;;;;2.63;2.17;;;3.80;98.00;;;;;;5051871;28;20484;-65
2022/11/13 01:43:47;;;;;;;5.27;3.70;;;3.90;98.00;;;;;;5051957;28;20498;-66
2022/11/13 01:46:25;;;;;;;3.97;2.80;;;4.00;98.00;;;;;;5051744;28;20516;-66
2022/11/13 01:48:59;;;;;;;4.10;2.77;;;3.90;98.00;;;;;;5051648;28;20479;-67
2022/11/13 01:51:32;;;;;;;5.37;2.90;;;3.80;98.00;;;;;;5051787;28;20466;-66
2022/11/13 01:54:07;;;;;;;12.50;3.70;;;3.80;98.00;;;;;;5051465;28;20463;-66
2022/11/13 01:56:34;;;;;;;6.13;4.20;;;3.70;98.00;;;;;;5051874;28;20463;-66
2022/11/13 01:59:06;;;;;;;11.90;5.40;;;3.80;98.00;;;;;;5052239;28;20455;-66
2022/11/13 02:01:34;;;;;;;5.43;2.63;;;3.80;98.00;;;;;;5035818;28;21078;-66
2022/11/13 02:04:02;;;;;;;4.13;2.57;;;3.80;98.00;;;;;;5051565;28;20467;-66
2022/11/13 02:06:36;;;;;;;3.20;2.90;;;3.80;98.00;;;;;;5049595;28;20547;-66
2022/11/13 02:09:05;;;;;;;4.93;3.00;;;3.70;98.00;;;;;;5051415;28;20458;-66
2022/11/13 02:11:32;;;;;;;2.57;2.37;;;3.60;98.00;;;;;;5051608;28;20450;-66
2022/11/13 02:14:01;;;;;;;8.33;4.10;;;3.60;98.00;;;;;;5051633;28;20471;-66
2022/11/13 02:16:30;;;;;;;7.63;3.00;;;3.50;98.00;;;;;;5051682;28;20464;-66
2022/11/13 02:19:00;;;;;;;11.50;4.53;;;3.40;98.00;;;;;;5051445;28;20464;-66
2022/11/13 02:21:34;;;;;;;14.37;4.80;;;3.30;98.00;;;;;;5033668;28;20483;-66
2022/11/13 02:24:26;;;;;;;8.97;4.30;;;3.40;98.00;;;;;;5051268;28;20463;-66
2022/11/13 02:26:58;;;;;;;7.20;3.50;;;3.40;98.00;;;;;;5042988;28;20845;-66
2022/11/13 02:29:25;;;;;;;14.30;4.93;;;3.30;98.00;;;;;;5051513;28;20837;-66
2022/11/13 02:31:52;;;;;;;8.37;3.27;;;3.30;98.00;;;;;;5051134;28;20880;-66
2022/11/13 02:34:20;;;;;;;7.10;4.20;;;3.10;98.00;;;;;;5051153;28;20949;-66
2022/11/13 02:36:47;;;;;;;7.17;3.63;;;3.20;98.00;;;;;;5051072;28;20457;-66
2022/11/13 02:39:16;;;;;;;7.60;3.87;;;3.20;98.00;;;;;;5051246;28;20466;-66
2022/11/13 02:41:43;;;;;;;3.87;2.17;;;3.20;98.00;;;;;;5050930;28;20524;-66
2022/11/13 02:44:12;;;;;;;4.60;2.70;;;3.10;98.00;;;;;;5051164;28;20454;-66
2022/11/13 02:46:39;;;;;;;5.10;2.83;;;3.00;98.00;;;;;;5051041;28;20501;-67
2022/11/13 02:49:07;;;;;;;3.40;2.63;;;3.00;98.00;;;;;;5051192;28;20502;-67
2022/11/13 02:51:35;;;;;;;4.50;2.47;;;3.10;98.00;;;;;;5051147;28;20964;-66
2022/11/13 02:54:02;;;;;;;2.63;1.80;;;3.20;98.00;;;;;;5051307;28;20461;-66
2022/11/13 02:56:29;;;;;;;2.37;2.00;;;3.30;98.00;;;;;;5050971;28;20464;-66
2022/11/13 02:58:57;;;;;;;3.20;2.43;;;3.30;98.00;;;;;;5050841;28;20770;-66
2022/11/13 03:01:25;;;;;;;2.40;1.93;;;3.30;98.00;;;;;;5050882;28;20471;-66
2022/11/13 03:03:52;;;;;;;7.00;2.77;;;3.30;98.00;;;;;;5033085;28;20458;-66
2022/11/13 03:06:20;;;;;;;3.93;2.43;;;3.30;98.00;;;;;;5053904;28;20463;-66
2022/11/13 03:08:47;;;;;;;6.60;2.60;;;3.10;98.00;;;;;;5052728;28;20472;-66
2022/11/13 03:11:14;;;;;;;2.90;1.90;;;3.10;98.00;;;;;;5054875;28;20453;-66
2022/11/13 03:13:41;;;;;;;3.67;2.00;;;3.20;98.00;;;;;;5054770;28;20463;-66
2022/11/13 03:16:10;;;;;;;3.87;2.50;;;3.20;98.00;;;;;;5037100;28;20463;-66
2022/11/13 03:18:39;;;;;;;11.33;2.13;;;3.30;98.00;;;;;;5054549;28;20458;-66
2022/11/13 03:21:09;;;;;;;3.00;2.20;;;3.30;98.00;;;;;;5054465;28;20462;-66
2022/11/13 03:23:36;;;;;;;3.80;2.30;;;3.20;98.00;;;;;;5054303;28;20490;-66
2022/11/13 03:26:05;;;;;;;4.13;2.20;;;3.30;98.00;;;;;;5054638;28;20458;-66
2022/11/13 03:28:32;;;;;;;6.47;3.27;;;3.30;98.00;;;;;;5054534;28;20668;-66
2022/11/13 03:30:59;;;;;;;7.33;3.37;;;3.10;98.00;;;;;;5054530;28;20500;-66
2022/11/13 03:33:26;;;;;;;4.80;2.67;;;3.10;98.00;;;;;;5054484;28;20476;-66
2022/11/13 03:35:55;;;;;;;4.40;2.63;;;3.10;98.00;;;;;;5054159;28;20454;-66
2022/11/13 03:38:22;;;;;;;3.27;2.10;;;3.20;98.00;;;;;;5036793;28;20459;-67
2022/11/13 03:40:51;;;;;;;3.13;2.40;;;3.10;98.00;;;;;;5054129;28;20940;-66
2022/11/13 03:43:18;;;;;;;3.03;2.50;;;3.10;98.00;;;;;;5054275;28;20916;-67
2022/11/13 03:45:46;;;;;;;3.50;2.50;;;3.20;98.00;;;;;;5054515;28;20455;-66
2022/11/13 03:48:14;;;;;;;2.50;2.30;;;3.20;98.00;;;;;;5053977;28;20972;-65
2022/11/13 03:50:42;;;;;;;3.73;2.20;;;3.30;98.00;;;;;;5053871;28;20534;-66
2022/11/13 03:53:11;;;;;;;3.57;2.67;;;3.30;98.00;;;;;;5054250;28;20455;-66
2022/11/13 03:55:38;;;;;;;4.27;2.50;;;3.20;98.00;;;;;;5055216;28;20485;-66
2022/11/13 03:58:06;;;;;;;2.80;2.30;;;3.30;98.00;;;;;;5053856;28;20489;-66
2022/11/13 04:00:33;;;;;;;3.53;2.00;;;3.30;98.00;;;;;;5053944;28;20465;-66
2022/11/13 04:03:02;;;;;;;2.03;1.83;;;3.30;98.00;;;;;;5053677;28;20489;-66
2022/11/13 04:05:29;;;;;;;2.80;2.07;;;3.20;98.00;;;;;;5054008;28;20445;-66
2022/11/13 04:07:56;;;;;;;4.00;2.47;;;3.20;98.00;;;;;;5035866;28;20959;-65
2022/11/13 04:10:26;;;;;;;2.07;1.97;;;3.20;98.00;;;;;;5053556;28;20462;-65
2022/11/13 04:12:53;;;;;;;2.93;1.77;;;3.20;98.00;;;;;;5053536;28;20956;-66
2022/11/13 04:15:22;;;;;;;3.53;3.00;;;3.20;98.00;;;;;;5053479;28;21059;-66
2022/11/13 04:17:49;;;;;;;2.37;2.00;;;3.20;98.00;;;;;;5053305;28;20499;-66
2022/11/13 04:20:17;;;;;;;3.03;1.97;;;3.10;98.00;;;;;;5053398;28;20501;-66
2022/11/13 04:22:44;;;;;;;3.17;2.07;;;3.00;98.00;;;;;;5053004;28;20486;-66
2022/11/13 04:25:12;;;;;;;4.23;2.97;;;3.00;98.00;;;;;;5053215;28;20971;-66
2022/11/13 04:27:40;;;;;;;3.73;1.97;;;2.90;98.00;;;;;;5053237;28;20976;-67
2022/11/13 04:30:09;;;;;;;3.70;2.03;;;2.90;98.00;;;;;;5053114;28;20799;-66
2022/11/13 04:32:36;;;;;;;2.63;2.17;;;2.90;98.00;;;;;;5053132;28;20509;-66
2022/11/13 04:35:03;;;;;;;2.70;1.93;;;2.90;98.00;;;;;;5052944;28;20501;-66
2022/11/13 04:37:30;;;;;;;3.67;2.30;;;3.00;98.00;;;;;;5053470;28;20466;-66
2022/11/13 04:39:58;;;;;;;5.77;2.77;;;2.90;98.00;;;;;;5053188;28;20831;-66
2022/11/13 04:45:12;;;;;;;2.33;1.50;;;2.90;98.00;;;;;;5053157;28;20952;-66
2022/11/13 04:47:39;;;;;;;2.37;2.00;;;2.70;98.00;;;;;;5053016;28;20454;-66
2022/11/13 04:50:07;;;;;;;3.40;1.70;;;2.60;98.00;;;;;;5053020;28;20457;-66
2022/11/13 04:52:34;;;;;;;1.97;1.87;;;2.70;98.00;;;;;;5052727;28;20944;-66
2022/11/13 04:55:01;;;;;;;3.27;1.90;;;2.70;98.00;;;;;;5052556;28;20465;-66
2022/11/13 04:57:28;;;;;;;2.33;1.73;;;2.70;98.00;;;;;;5052822;28;20827;-66
2022/11/13 04:59:55;;;;;;;2.17;2.00;;;2.70;98.00;;;;;;5052631;28;20458;-66
2022/11/13 05:02:24;;;;;;;2.30;1.80;;;2.80;98.00;;;;;;5018431;28;20478;-66
2022/11/13 05:04:54;;;;;;;1.63;1.53;;;2.80;98.00;;;;;;5052574;28;20458;-66
2022/11/13 05:07:21;;;;;;;1.83;1.60;;;2.70;98.00;;;;;;5052396;28;20465;-66
2022/11/13 05:09:48;;;;;;;2.00;1.63;;;2.70;98.00;;;;;;5052341;28;20457;-66
2022/11/13 05:12:15;;;;;;;3.03;1.70;;;2.70;98.00;;;;;;5052374;28;20457;-66
2022/11/13 05:14:42;;;;;;;4.00;1.93;;;2.60;98.00;;;;;;5052215;28;20459;-66
2022/11/13 05:17:11;;;;;;;1.80;1.70;;;2.70;98.00;;;;;;5052130;28;20545;-66
2022/11/13 05:19:40;;;;;;;4.63;2.17;;;2.80;98.00;;;;;;5052115;28;20470;-65
2022/11/13 05:22:07;;;;;;;2.30;1.83;;;2.70;98.00;;;;;;5052118;28;20463;-66
2022/11/13 05:24:34;;;;;;;1.67;1.60;;;2.90;98.00;;;;;;5052078;28;20538;-66
2022/11/13 05:27:05;;;;;;;1.87;1.60;;;2.80;98.00;;;;;;5052226;28;20468;-66
2022/11/13 05:29:32;;;;;;;2.43;2.23;;;2.70;98.00;;;;;;5051851;28;20450;-66
2022/11/13 05:32:00;;;;;;;5.20;3.10;;;2.60;98.00;;;;;;5052151;28;20462;-66
2022/11/13 05:34:27;;;;;;;1.73;1.67;;;2.60;98.00;;;;;;5052144;28;20465;-66
2022/11/13 05:36:56;;;;;;;2.53;1.70;;;2.60;98.00;;;;;;5052002;28;20456;-66
2022/11/13 05:39:23;;;;;;;2.17;1.60;;;2.60;98.00;;;;;;5052391;28;20458;-66
2022/11/13 05:41:50;;;;;;;2.00;1.57;;;2.60;98.00;;;;;;5051870;28;20458;-66
2022/11/13 05:44:19;;;;;;;3.20;2.33;;;2.60;98.00;;;;;;5051972;28;20486;-66
2022/11/13 05:46:46;;;;;;;5.07;2.47;;;2.50;98.00;;;;;;5052654;28;20467;-65
2022/11/13 05:49:13;;;;;;;1.80;1.70;;;2.60;98.00;;;;;;5051681;28;20830;-66
2022/11/13 05:51:40;;;;;;;2.33;1.73;;;2.60;98.00;;;;;;5051868;28;20458;-66
2022/11/13 05:54:09;;;;;;;2.87;2.50;;;2.70;98.00;;;;;;5051541;28;20494;-66
2022/11/13 05:56:37;;;;;;;2.63;1.97;;;2.70;98.00;;;;;;5051480;28;20469;-66
2022/11/13 05:59:05;;;;;;;1.77;1.67;;;2.70;98.00;;;;;;5051562;28;20458;-67
2022/11/13 06:01:34;;;;;;;3.07;1.93;;;2.80;98.00;;;;;;5051646;28;20454;-67
2022/11/13 06:04:03;;;;;;;3.33;2.23;;;2.90;98.00;;;;;;5051228;28;21092;-66
2022/11/13 06:06:31;;;;;;;1.80;1.70;;;2.80;98.00;;;;;;5051422;28;20948;-66
2022/11/13 06:09:00;;;;;;;3.00;2.00;;;2.90;98.00;;;;;;5051386;28;20524;-66
2022/11/13 06:11:30;;;;;;;2.00;1.80;;;2.90;98.00;;;;;;5051384;28;20970;-66
2022/11/13 06:14:01;;;;;;;2.77;1.77;;;2.80;98.00;;;;;;5051301;28;20460;-66
2022/11/13 06:16:30;;;;;;;2.87;2.03;;;2.60;98.00;;;;;;5051289;28;20839;-66
2022/11/13 06:18:58;;;;;;;4.93;2.50;;;2.60;98.00;;;;;;5051318;28;20507;-66
2022/11/13 06:21:27;;;;;;;3.53;1.87;;;2.60;98.00;;;;;;5051341;28;20458;-66
2022/11/13 06:23:57;;;;;;;3.00;1.83;;;2.70;98.00;;;;;;5051254;28;20481;-67
2022/11/13 06:26:27;;;;;;;2.50;1.80;;;2.60;98.00;;;;;;5051460;28;20975;-66
2022/11/13 06:28:55;;;;;;;3.10;1.97;;;2.60;98.00;;;;;;5051117;28;20457;-65
2022/11/13 06:31:24;;;;;;;2.40;2.07;;;2.60;98.00;;;;;;5051184;28;20821;-66
2022/11/13 06:33:51;;;;;;;1.80;1.70;;;2.60;98.00;;;;;;5051079;28;20855;-66
2022/11/13 06:36:21;;;;;;;4.00;1.93;;;2.50;98.00;;;;;;5051119;28;20823;-66
2022/11/13 06:38:48;;;;;;;3.70;2.83;;;2.50;98.00;;;;;;5051337;28;20457;-66
2022/11/13 06:41:18;;;;;;;1.93;1.90;;;2.50;98.00;;;;;;5054016;28;20553;-66
2022/11/13 06:43:46;;;;;;;2.23;2.10;;;2.40;98.00;;;;;;5054822;28;20539;-66
2022/11/13 06:46:27;;;;;;;3.73;1.83;;;2.40;98.00;;;;;;5055052;28;20454;-66
2022/11/13 06:48:54;;;;;;;2.50;1.67;;;2.60;98.00;;;;;;5055907;28;20453;-66
2022/11/13 06:51:23;;;;;;;2.23;1.93;;;2.50;98.00;;;;;;5055651;28;20503;-65
2022/11/13 06:53:50;;;;;;;2.40;1.40;;;2.50;98.00;;;;;;5055937;28;20474;-66
2022/11/13 06:56:18;;;;;;;3.10;2.20;;;2.60;98.00;;;;;;5055568;28;20511;-66
2022/11/13 06:58:45;;;;;;;2.03;1.53;;;2.60;98.00;;;;;;5054918;28;20453;-66
2022/11/13 07:01:16;;;;;;;2.43;1.83;;;2.60;98.00;;;;;;5037002;28;20469;-66
2022/11/13 07:03:44;;;;;;;3.00;2.10;;;2.70;98.00;;;;;;5055007;28;21042;-66
2022/11/13 07:06:15;;;;;;;2.80;1.93;;;2.60;98.00;;;;;;5054957;28;20461;-66
2022/11/13 07:08:43;;;;;;;2.03;1.60;;;2.60;98.00;;;;;;5054757;28;20460;-67
2022/11/13 07:11:11;;;;;;;1.90;1.83;;;2.60;98.00;;;;;;5054860;28;20462;-66
2022/11/13 07:13:39;;;;;;;4.80;2.47;;;2.50;98.00;;;;;;5054609;28;20471;-65
2022/11/13 07:16:07;;;;;;;3.50;1.80;;;2.50;98.00;;;;;;5037214;28;20450;-66
2022/11/13 07:18:35;;;;;;;3.93;2.23;;;2.60;98.00;;;;;;5054921;28;20979;-66
2022/11/13 07:21:05;;;;;;;4.73;1.70;;;2.70;98.00;;;;;;5054627;28;20443;-66
2022/11/13 07:23:33;;;;;;;3.67;2.30;;;2.90;98.00;;;;;;5054514;28;20573;-66
2022/11/13 07:26:04;;;;;;;1.37;1.33;;;3.20;98.00;;;;;;5036763;28;20457;-66
2022/11/13 07:28:31;;;;;;;3.07;2.23;;;3.20;98.00;;;;;;5054634;28;20463;-66
2022/11/13 07:30:58;;;;;;;2.20;2.00;;;3.10;98.00;;;;;;5054012;28;20951;-66
2022/11/13 07:33:26;;;;;;;3.60;1.70;;;3.10;98.00;;;;;;5054720;28;20540;-66
2022/11/13 07:35:55;;;;;;;3.73;1.87;;;3.00;98.00;;;;;;5054633;28;20999;-65
2022/11/13 07:38:24;;;;;;;3.87;2.20;;;3.00;98.00;;;;;;5054873;28;20457;-63
2022/11/13 07:40:51;;;;;;;2.07;1.77;;;3.10;98.00;;;;;;5054012;28;20994;-63
2022/11/13 07:43:19;;;;;;;1.53;1.50;;;3.00;98.00;;;;;;5054061;28;20892;-64
2022/11/13 07:45:46;;;;;;;2.73;2.23;;;2.90;98.00;;;;;;5053873;28;20457;-63
2022/11/13 07:48:13;;;;;;;2.20;1.97;;;3.00;98.00;;;;;;5054076;28;20980;-64
2022/11/13 07:50:40;;;;;;;1.80;1.70;;;3.20;98.00;;;;;;5035947;28;20457;-63
2022/11/13 07:53:10;;;;;;;2.00;1.70;;;3.30;98.00;;;;;;5053991;28;20460;-63
2022/11/13 07:55:37;;;;;;;3.97;2.60;;;3.40;98.00;;;;;;5053592;28;20466;-64
2022/11/13 07:58:05;;;;;;;1.73;1.60;;;3.50;98.00;;;;;;5054169;28;20450;-64
2022/11/13 08:00:35;;;;;;;1.90;1.60;;;3.50;98.00;;;;;;5053864;28;20462;-63
2022/11/13 08:03:09;;;;;;;2.20;1.83;;;3.50;98.00;;;;;;5053938;28;20487;-64
2022/11/13 08:05:37;;;;;;;5.03;2.50;;;3.50;98.00;;;;;;5053739;28;20467;-64
2022/11/13 08:08:05;;;;;;;4.33;2.10;;;3.40;98.00;;;;;;5053927;28;20454;-64
2022/11/13 08:10:34;;;;;;;3.47;2.10;;;3.30;98.00;;;;;;5053863;28;20450;-64
2022/11/13 08:13:03;;;;;;;3.53;2.10;;;3.40;98.00;;;;;;5053901;28;20809;-64
2022/11/13 08:15:31;;;;;;;2.10;1.83;;;3.60;98.00;;;;;;5053605;28;20461;-63
2022/11/13 08:18:00;;;;;;;2.37;1.70;;;3.50;98.00;;;;;;5053493;28;20459;-64
2022/11/13 08:20:29;;;;;;;3.40;1.93;;;3.60;98.00;;;;;;5053291;28;20454;-63
2022/11/13 08:22:57;;;;;;;3.40;2.40;;;3.50;98.00;;;;;;5053088;28;20469;-64
2022/11/13 08:25:24;;;;;;;2.37;2.20;;;3.60;98.00;;;;;;5053213;28;20969;-64
2022/11/13 08:27:57;;;;;;;1.90;1.57;;;3.80;98.00;;;;;;5035512;28;20485;-64
2022/11/13 08:30:25;;;;;;;2.33;1.87;;;4.00;98.00;;;;;;5053177;28;20476;-64
2022/11/13 08:32:53;;;;;;;2.03;1.77;;;4.10;98.00;;;;;;5053322;28;20455;-64
2022/11/13 08:35:21;;;;;;;4.33;2.20;;;4.10;98.00;;;;;;5053074;28;20542;-63
2022/11/13 08:37:48;;;;;;;4.50;2.40;;;4.10;98.00;;;;;;5053228;28;20463;-63
2022/11/13 08:40:16;;;;;;;2.40;1.90;;;4.00;98.00;;;;;;5053086;28;20477;-63
2022/11/13 08:42:43;;;;;;;3.37;1.90;;;4.10;98.00;;;;;;5052665;28;20463;-64
2022/11/13 08:45:13;;;;;;;3.80;2.90;;;4.10;98.00;;;;;;5052845;28;20494;-63
2022/11/13 08:47:40;;;;;;;3.50;2.17;;;4.00;98.00;;;;;;5052909;28;20462;-63
2022/11/13 08:50:09;;;;;;;2.20;2.00;;;4.10;98.00;;;;;;5052943;28;20458;-62
2022/11/13 08:52:36;;;;;;;4.00;2.83;;;4.00;98.00;;;;;;5052821;28;20455;-62
2022/11/13 08:55:03;;;;;;;5.63;3.03;;;4.00;98.00;;;;;;5052899;28;20860;-63
2022/11/13 08:57:30;;;;;;;1.70;1.60;;;4.00;98.00;;;;;;5052648;28;20454;-63
2022/11/13 08:59:58;;;;;;;3.23;2.57;;;4.10;98.00;;;;;;5052586;28;20460;-62
2022/11/13 09:02:26;;;;;;;3.00;2.07;;;4.20;98.00;;;;;;5052041;28;20458;-63
2022/11/13 09:04:53;;;;;;;3.90;2.20;;;4.20;98.00;;;;;;5034693;28;20490;-62
2022/11/13 09:07:21;;;;;;;3.10;1.80;;;4.20;98.00;;;;;;5052762;28;20459;-62
2022/11/13 09:09:48;;;;;;;4.23;2.23;;;4.40;98.00;;;;;;5052667;28;20824;-64
2022/11/13 09:12:16;;;;;;;8.37;2.67;;;4.40;98.00;;;;;;5052592;28;20466;-62
2022/11/13 09:14:43;;;;;;;2.80;2.23;;;4.40;98.00;;;;;;5052241;28;20507;-63
2022/11/13 09:17:10;;;;;;;4.10;2.37;;;4.50;98.00;;;;;;5054841;28;20532;-64
2022/11/13 09:19:38;;;;;;;4.07;2.63;;;4.70;98.00;;;;;;5050070;28;20648;-65
2022/11/13 09:22:05;;;;;;;4.23;2.30;;;4.70;98.00;;;;;;5050104;28;20802;-66
2022/11/13 09:24:32;;;;;;;2.43;2.13;;;4.70;98.00;;;;;;5049642;28;20848;-64
2022/11/13 09:27:02;;;;;;;1.87;1.73;;;4.70;98.00;;;;;;5044620;28;20969;-64
2022/11/13 09:29:29;;;;;;;4.17;2.17;;;4.70;98.00;;;;;;5051721;28;20460;-63
2022/11/13 09:31:56;;;;;;;5.20;2.33;;;4.70;98.00;;;;;;5034744;28;20860;-63
2022/11/13 09:34:26;;;;;;;2.23;2.03;;;4.70;98.00;;;;;;5052438;28;20491;-63
2022/11/13 09:36:54;;;;;;;5.67;2.50;;;4.60;98.00;;;;;;5052307;28;20468;-63
2022/11/13 09:39:22;;;;;;;2.33;1.60;;;4.70;98.00;;;;;;5052643;28;20456;-63
2022/11/13 09:41:55;;;;;;;6.07;2.80;;;5.10;98.00;;;;;;5052339;28;20457;-64
2022/11/13 09:44:31;;;;;;;3.40;2.60;;;6.70;98.00;;;;;;5052528;28;20917;-63
2022/11/13 09:47:07;;;;;;;4.53;2.87;;;6.80;98.00;;;;;;5052185;28;20469;-63
2022/11/13 09:49:38;;;;;;;5.27;2.90;;;6.70;98.00;;;;;;5052198;28;20460;-64
2022/11/13 09:52:17;;;;;;;5.47;2.60;;;6.60;98.00;;;;;;5052472;28;20494;-63
2022/11/13 09:54:44;;;;;;;4.67;3.00;;;6.30;98.00;;;;;;5051778;28;20473;-64
2022/11/13 09:57:21;;;;;;;4.53;2.33;;;6.20;98.00;;;;;;5052351;28;20450;-64
2022/11/13 09:59:54;;;;;;;5.30;3.37;;;6.20;98.00;;;;;;5052046;28;20799;-64
2022/11/13 10:02:27;;;;;;;3.40;2.20;;;6.30;98.00;;;;;;5052216;28;20460;-64
2022/11/13 10:05:02;;;;;;;4.30;2.97;;;6.40;98.00;;;;;;5052023;28;20486;-63
2022/11/13 10:07:41;;;;;;;4.80;3.10;;;6.40;98.00;;;;;;5052122;28;20463;-65
2022/11/13 10:10:27;;;;;;;3.83;2.50;;;6.50;98.00;;;;;;5051517;28;20459;-64
2022/11/13 10:12:57;;;;;;;4.30;2.67;;;6.50;98.00;;;;;;5051888;28;20461;-63
2022/11/13 10:15:25;;;;;;;6.47;3.20;;;6.50;98.00;;;;;;5051497;28;20463;-60
2022/11/13 10:17:58;;;;;;;6.60;2.23;;;6.30;98.00;;;;;;5051781;28;20468;-64
2022/11/13 10:20:31;;;;;;;6.30;3.53;;;6.40;98.00;;;;;;5050864;28;20480;-64
2022/11/13 10:23:08;;;;;;;7.23;3.47;;;6.40;98.00;;;;;;5050738;28;20492;-64
2022/11/13 10:25:37;;;;;;;5.10;2.60;;;6.30;98.00;;;;;;5051626;28;20541;-64
2022/11/13 10:28:15;;;;;;;4.20;2.97;;;6.30;98.00;;;;;;5051901;28;20458;-64
2022/11/13 10:30:42;;;;;;;6.03;3.67;;;6.30;98.00;;;;;;5051950;28;20473;-64
2022/11/13 10:33:14;;;;;;;8.57;3.67;;;6.20;98.00;;;;;;5050957;28;20479;-64
2022/11/13 10:35:49;;;;;;;5.40;3.50;;;6.20;98.00;;;;;;5050796;28;20954;-64
2022/11/13 10:38:24;;;;;;;5.63;2.50;;;6.40;98.00;;;;;;5050892;28;20465;-64
2022/11/13 10:40:52;;;;;;;6.90;3.20;;;6.60;98.00;;;;;;5050902;28;20455;-64
2022/11/13 10:43:21;;;;;;;4.90;3.40;;;6.90;98.00;;;;;;5051339;28;20817;-64
2022/11/13 10:45:56;;;;;;;6.83;3.67;;;7.10;98.00;;;;;;5051317;28;20776;-64
2022/11/13 10:48:27;;;;;;;7.23;3.30;;;7.20;98.00;;;;;;5050799;28;20496;-64
2022/11/13 10:50:56;;;;;;;8.60;3.70;;;7.10;98.00;;;;;;5051100;28;20459;-64
2022/11/13 10:53:26;;;;;;;7.80;4.10;;;6.70;98.00;;;;;;5033368;28;20841;-64
2022/11/13 10:55:57;;;;;;;4.30;3.00;;;6.80;98.00;;;;;;5050999;28;20905;-64
2022/11/13 10:58:24;;;;;;;4.73;3.00;;;6.70;98.00;;;;;;5051259;28;20461;-64
2022/11/13 11:00:52;;;;;;;8.00;3.83;;;6.80;98.00;;;;;;5051235;28;20477;-64
2022/11/13 11:03:20;;;;;;;6.07;3.67;;;6.90;98.00;;;;;;5051380;28;20459;-64
2022/11/13 11:05:55;;;;;;;5.40;3.33;;;7.10;98.00;;;;;;5050704;28;20554;-64
2022/11/13 11:08:29;;;;;;;6.03;3.87;;;6.90;98.00;;;;;;5051127;28;20963;-64
2022/11/13 11:14:11;;;;;;;4.63;3.50;;;6.80;98.00;;;;;;4969668;28;20580;-64
2022/11/13 11:16:39;;;;;;;5.30;2.63;;;6.70;98.00;;;;;;4969732;28;20553;-64
2022/11/13 11:19:16;;;;;;;7.40;3.30;;;6.80;98.00;;;;;;4996190;28;20998;-64
2022/11/13 11:21:45;;;;;;;4.53;3.30;;;6.80;98.00;;;;;;5050602;28;21044;-64
2022/11/13 11:24:16;;;;;;;5.03;3.00;;;6.80;98.00;;;;;;5050628;28;20496;-64
2022/11/13 11:26:47;;;;;;;5.27;3.47;;;6.90;98.00;;;;;;5052520;28;20452;-64
2022/11/13 11:29:21;;;;;;;8.40;4.50;;;7.00;98.00;;;;;;5054713;28;20456;-64
2022/11/13 11:31:54;;;;;;;4.83;3.07;;;7.20;98.00;;;;;;5054282;28;20461;-64
2022/11/13 11:34:28;;;;;;;6.30;2.97;;;7.40;98.00;;;;;;5054384;28;20457;-64
2022/11/13 11:37:05;;;;;;;4.50;2.80;;;7.60;98.00;;;;;;5054394;28;20952;-64
2022/11/13 11:39:42;;;;;;;6.73;3.40;;;7.80;98.00;;;;;;5054619;28;20462;-64
2022/11/13 11:42:20;;;;;;;8.53;4.03;;;7.90;98.00;;;;;;5054360;28;20834;-64
2022/11/13 11:44:58;;;;;;;10.57;4.20;;;7.90;98.00;;;;;;5054095;28;20474;-64
2022/11/13 11:47:25;;;;;;;6.23;3.90;;;8.30;98.00;;;;;;5054145;28;20459;-64
2022/11/13 11:49:52;;;;;;;7.17;3.80;;;8.40;98.00;;;;;;5054083;28;20945;-64
2022/11/13 11:52:33;;;;;;;9.70;3.53;;;8.60;98.00;;;;;;5054176;28;20999;-64
2022/11/13 11:55:14;;;;;;;8.00;3.77;;;8.90;98.00;;;;;;5054165;28;20459;-64
2022/11/13 11:57:50;;;;;;;7.83;3.60;;;9.40;98.00;;;;;;5053957;28;20456;-64
2022/11/13 12:00:19;;;;;;;6.37;3.23;;;9.80;98.00;;;;;;5054055;28;20459;-64
2022/11/13 12:03:21;;;;;;;8.27;4.10;;;10.10;98.00;;;;;;5053816;28;20870;-64
2022/11/13 12:05:59;;;;;;;5.90;3.67;;;10.30;98.00;;;;;;5054037;28;20542;-64
2022/11/13 12:08:36;;;;;;;8.67;3.80;;;10.90;98.00;;;;;;5053652;28;20515;-64
2022/11/13 12:11:12;;;;;;;10.80;4.70;;;11.30;98.00;;;;;;5053744;28;20453;-64
2022/11/13 12:13:50;;;;;;;11.33;4.27;;;11.70;98.00;;;;;;5053609;28;20491;-64
2022/11/13 12:16:27;;;;;;;9.87;4.87;;;12.20;98.00;;;;;;5053766;28;20458;-64
2022/11/13 12:19:02;;;;;;;10.93;5.00;;;12.50;98.00;;;;;;5053705;28;20641;-65
2022/11/13 12:21:39;;;;;;;12.87;6.30;;;12.70;98.00;;;;;;5053742;28;20452;-64
2022/11/13 12:24:37;;;;;;;9.77;5.30;;;12.90;98.00;;;;;;5053390;28;20464;-64
2022/11/13 12:27:19;;;;;;;11.63;5.13;;;13.20;98.00;;;;;;5039422;28;20876;-65
2022/11/13 12:29:57;;;;;;;15.20;6.00;;;13.60;98.00;;;;;;5053398;28;20456;-64
2022/11/13 12:32:39;;;;;;;17.10;6.20;;;13.70;98.00;;;;;;5036754;28;20830;-65
2022/11/13 12:35:11;;;;;;;11.80;5.77;;;13.70;98.00;;;;;;5036624;28;20484;-64
2022/11/13 12:37:46;;;;;;;12.00;5.10;;;14.00;98.00;;;;;;5053206;28;20928;-64
2022/11/13 12:40:22;;;;;;;10.70;5.00;;;14.20;98.00;;;;;;5053330;28;20462;-64
2022/11/13 12:42:56;;;;;;;11.77;5.47;;;14.20;98.00;;;;;;5053090;28;20830;-65
2022/11/13 12:45:30;;;;;;;11.23;4.87;;;14.30;98.00;;;;;;5053267;28;20489;-65
2022/11/13 12:48:09;;;;;;;8.70;5.03;;;14.60;98.00;;;;;;5053217;28;20464;-65
2022/11/13 12:50:36;;;;;;;11.87;4.87;;;15.00;98.00;;;;;;5053233;28;20804;-65
2022/11/13 12:53:09;;;;;;;13.33;6.20;;;15.30;98.00;;;;;;5035163;28;20851;-65
2022/11/13 12:55:39;;;;;;;15.97;5.83;;;15.50;98.00;;;;;;5052845;28;20474;-65
2022/11/13 12:58:11;;;;;;;7.70;5.30;;;15.50;98.00;;;;;;5052776;28;20463;-65
2022/11/13 13:00:40;;;;;;;11.03;5.80;;;15.70;98.00;;;;;;5053210;28;20467;-65
2022/11/13 13:03:27;;;;;;;12.67;5.77;;;15.60;98.00;;;;;;5052680;28;20458;-65
2022/11/13 13:06:10;;;;;;;11.73;5.30;;;15.90;98.00;;;;;;5035991;28;20483;-65
2022/11/13 13:08:56;;;;;;;11.87;5.93;;;15.90;98.00;;;;;;5036533;28;21012;-64
2022/11/13 13:11:35;;;;;;;9.33;4.87;;;15.80;98.00;;;;;;5052741;28;20460;-65
2022/11/13 13:14:20;;;;;;;12.70;4.83;;;15.30;98.00;;;;;;5052401;28;20455;-65